sensor_id;sensor_type;location;lat;lon;timestamp;P1;durP1;ratioP1;P2;durP2;ratioP2
71080;SDS011;58740;50.672;18.690;2024-03-08T00:01:59;32.50;;;16.50;;
71080;SDS011;58740;50.672;18.690;2024-03-08T00:04:32;31.50;;;16.50;;
71080;SDS011;58740;50.672;18.690;2024-03-08T00:07:06;34.20;;;16.50;;
71080;SDS011;58740;50.672;18.690;2024-03-08T00:09:39;33.00;;;16.90;;
71080;SDS011;58740;50.672;18.690;2024-03-08T00:12:13;36.70;;;17.60;;
71080;SDS011;58740;50.672;18.690;2024-03-08T00:14:46;38.70;;;17.60;;
71080;SDS011;58740;50.672;18.690;2024-03-08T00:17:19;34.10;;;16.20;;
71080;SDS011;58740;50.672;18.690;2024-03-08T00:19:54;36.70;;;17.80;;
71080;SDS011;58740;50.672;18.690;2024-03-08T00:22:27;39.90;;;17.60;;
71080;SDS011;58740;50.672;18.690;2024-03-08T00:25:01;34.10;;;17.10;;
71080;SDS011;58740;50.672;18.690;2024-03-08T00:27:35;33.70;;;15.90;;
71080;SDS011;58740;50.672;18.690;2024-03-08T00:30:10;37.10;;;18.40;;
71080;SDS011;58740;50.672;18.690;2024-03-08T00:32:45;38.50;;;17.90;;
71080;SDS011;58740;50.672;18.690;2024-03-08T00:35:19;41.80;;;17.30;;
71080;SDS011;58740;50.672;18.690;2024-03-08T00:37:53;38.40;;;18.10;;
71080;SDS011;58740;50.672;18.690;2024-03-08T00:40:27;40.80;;;17.30;;
71080;SDS011;58740;50.672;18.690;2024-03-08T00:43:00;38.70;;;18.40;;
71080;SDS011;58740;50.672;18.690;2024-03-08T00:45:34;46.70;;;19.40;;
71080;SDS011;58740;50.672;18.690;2024-03-08T00:48:08;38.40;;;17.00;;
71080;SDS011;58740;50.672;18.690;2024-03-08T00:50:41;37.40;;;17.80;;
71080;SDS011;58740;50.672;18.690;2024-03-08T00:53:16;33.50;;;16.30;;
71080;SDS011;58740;50.672;18.690;2024-03-08T00:55:49;36.80;;;18.20;;
71080;SDS011;58740;50.672;18.690;2024-03-08T00:58:23;39.50;;;18.80;;
71080;SDS011;58740;50.672;18.690;2024-03-08T01:00:56;42.40;;;18.50;;
71080;SDS011;58740;50.672;18.690;2024-03-08T01:03:29;38.00;;;18.10;;
71080;SDS011;58740;50.672;18.690;2024-03-08T01:06:05;37.70;;;18.80;;
71080;SDS011;58740;50.672;18.690;2024-03-08T01:08:39;35.40;;;16.90;;
71080;SDS011;58740;50.672;18.690;2024-03-08T01:11:14;40.30;;;18.20;;
71080;SDS011;58740;50.672;18.690;2024-03-08T01:13:48;32.70;;;16.70;;
71080;SDS011;58740;50.672;18.690;2024-03-08T01:16:21;37.90;;;18.20;;
71080;SDS011;58740;50.672;18.690;2024-03-08T01:18:54;41.00;;;19.80;;
71080;SDS011;58740;50.672;18.690;2024-03-08T05:44:20;42.80;;;20.20;;
71080;SDS011;58740;50.672;18.690;2024-03-08T05:46:50;43.50;;;21.20;;
71080;SDS011;58740;50.672;18.690;2024-03-08T05:49:19;39.90;;;19.10;;
71080;SDS011;58740;50.672;18.690;2024-03-08T05:51:49;41.90;;;21.20;;
71080;SDS011;58740;50.672;18.690;2024-03-08T05:54:19;57.70;;;24.70;;
71080;SDS011;58740;50.672;18.690;2024-03-08T05:56:51;54.10;;;25.60;;
71080;SDS011;58740;50.672;18.690;2024-03-08T05:59:22;53.00;;;22.90;;
71080;SDS011;58740;50.672;18.690;2024-03-08T06:01:51;37.90;;;17.30;;
71080;SDS011;58740;50.672;18.690;2024-03-08T06:04:20;31.70;;;15.80;;
71080;SDS011;58740;50.672;18.690;2024-03-08T06:06:49;32.20;;;15.90;;
71080;SDS011;58740;50.672;18.690;2024-03-08T06:09:20;34.60;;;15.40;;
71080;SDS011;58740;50.672;18.690;2024-03-08T06:11:51;19.80;;;10.50;;
71080;SDS011;58740;50.672;18.690;2024-03-08T06:14:21;28.50;;;14.80;;
71080;SDS011;58740;50.672;18.690;2024-03-08T06:16:51;39.50;;;16.40;;
71080;SDS011;58740;50.672;18.690;2024-03-08T06:19:20;30.90;;;14.80;;
71080;SDS011;58740;50.672;18.690;2024-03-08T06:21:49;25.80;;;14.10;;
71080;SDS011;58740;50.672;18.690;2024-03-08T06:24:18;32.50;;;14.20;;
71080;SDS011;58740;50.672;18.690;2024-03-08T06:26:47;30.20;;;15.40;;
71080;SDS011;58740;50.672;18.690;2024-03-08T06:29:16;36.50;;;16.40;;
71080;SDS011;58740;50.672;18.690;2024-03-08T06:31:46;33.40;;;16.00;;
71080;SDS011;58740;50.672;18.690;2024-03-08T06:34:15;28.20;;;14.20;;
71080;SDS011;58740;50.672;18.690;2024-03-08T06:36:45;33.80;;;16.90;;
71080;SDS011;58740;50.672;18.690;2024-03-08T06:39:14;35.90;;;16.00;;
71080;SDS011;58740;50.672;18.690;2024-03-08T06:41:45;32.10;;;14.80;;
71080;SDS011;58740;50.672;18.690;2024-03-08T06:44:14;37.60;;;16.40;;
71080;SDS011;58740;50.672;18.690;2024-03-08T06:46:44;36.70;;;18.30;;
71080;SDS011;58740;50.672;18.690;2024-03-08T06:49:13;34.00;;;17.30;;
71080;SDS011;58740;50.672;18.690;2024-03-08T06:51:43;46.10;;;21.10;;
71080;SDS011;58740;50.672;18.690;2024-03-08T06:54:12;47.80;;;21.50;;
71080;SDS011;58740;50.672;18.690;2024-03-08T06:56:41;41.90;;;21.30;;
71080;SDS011;58740;50.672;18.690;2024-03-08T06:59:11;39.20;;;18.10;;
71080;SDS011;58740;50.672;18.690;2024-03-08T07:01:41;44.10;;;21.30;;
71080;SDS011;58740;50.672;18.690;2024-03-08T07:04:10;53.20;;;24.80;;
71080;SDS011;58740;50.672;18.690;2024-03-08T07:06:39;41.60;;;20.30;;
71080;SDS011;58740;50.672;18.690;2024-03-08T07:09:08;42.20;;;18.30;;
71080;SDS011;58740;50.672;18.690;2024-03-08T07:11:39;43.20;;;18.40;;
71080;SDS011;58740;50.672;18.690;2024-03-08T07:14:13;37.90;;;19.10;;
71080;SDS011;58740;50.672;18.690;2024-03-08T07:16:43;35.30;;;19.40;;
71080;SDS011;58740;50.672;18.690;2024-03-08T07:19:12;39.10;;;19.70;;
71080;SDS011;58740;50.672;18.690;2024-03-08T07:21:41;37.80;;;19.20;;
71080;SDS011;58740;50.672;18.690;2024-03-08T07:24:11;38.00;;;18.90;;
71080;SDS011;58740;50.672;18.690;2024-03-08T07:27:01;43.40;;;20.80;;
71080;SDS011;58740;50.672;18.690;2024-03-08T07:29:30;36.70;;;18.70;;
71080;SDS011;58740;50.672;18.690;2024-03-08T07:32:00;37.40;;;17.90;;
71080;SDS011;58740;50.672;18.690;2024-03-08T07:34:40;35.40;;;18.00;;
71080;SDS011;58740;50.672;18.690;2024-03-08T07:37:09;38.50;;;19.50;;
71080;SDS011;58740;50.672;18.690;2024-03-08T07:39:39;44.20;;;20.30;;
71080;SDS011;58740;50.672;18.690;2024-03-08T07:42:08;41.90;;;19.20;;
71080;SDS011;58740;50.672;18.690;2024-03-08T07:44:38;34.40;;;16.90;;
71080;SDS011;58740;50.672;18.690;2024-03-08T07:47:08;32.00;;;16.90;;
71080;SDS011;58740;50.672;18.690;2024-03-08T07:49:37;32.10;;;15.90;;
71080;SDS011;58740;50.672;18.690;2024-03-08T07:52:07;36.60;;;17.30;;
71080;SDS011;58740;50.672;18.690;2024-03-08T07:54:36;44.20;;;18.10;;
71080;SDS011;58740;50.672;18.690;2024-03-08T07:57:05;45.10;;;21.90;;
71080;SDS011;58740;50.672;18.690;2024-03-08T07:59:35;38.40;;;19.40;;
71080;SDS011;58740;50.672;18.690;2024-03-08T08:02:04;39.30;;;17.50;;
71080;SDS011;58740;50.672;18.690;2024-03-08T08:04:33;36.00;;;18.60;;
71080;SDS011;58740;50.672;18.690;2024-03-08T08:07:03;39.40;;;18.40;;
71080;SDS011;58740;50.672;18.690;2024-03-08T08:09:34;36.80;;;18.80;;
71080;SDS011;58740;50.672;18.690;2024-03-08T08:12:04;36.20;;;18.00;;
71080;SDS011;58740;50.672;18.690;2024-03-08T08:14:34;36.50;;;17.40;;
71080;SDS011;58740;50.672;18.690;2024-03-08T08:17:04;37.60;;;16.20;;
71080;SDS011;58740;50.672;18.690;2024-03-08T08:19:36;35.50;;;16.80;;
71080;SDS011;58740;50.672;18.690;2024-03-08T08:22:06;33.30;;;16.40;;
71080;SDS011;58740;50.672;18.690;2024-03-08T08:24:36;32.40;;;17.10;;
71080;SDS011;58740;50.672;18.690;2024-03-08T08:27:05;36.30;;;16.60;;
71080;SDS011;58740;50.672;18.690;2024-03-08T08:29:36;33.90;;;16.40;;
71080;SDS011;58740;50.672;18.690;2024-03-08T08:32:06;34.70;;;15.00;;
71080;SDS011;58740;50.672;18.690;2024-03-08T08:34:35;32.90;;;15.40;;
71080;SDS011;58740;50.672;18.690;2024-03-08T08:37:05;31.90;;;16.10;;
71080;SDS011;58740;50.672;18.690;2024-03-08T08:39:34;30.10;;;14.50;;
71080;SDS011;58740;50.672;18.690;2024-03-08T08:42:04;34.50;;;16.20;;
71080;SDS011;58740;50.672;18.690;2024-03-08T08:44:36;33.60;;;16.10;;
71080;SDS011;58740;50.672;18.690;2024-03-08T08:47:06;30.10;;;15.50;;
71080;SDS011;58740;50.672;18.690;2024-03-08T08:49:43;28.80;;;15.00;;
71080;SDS011;58740;50.672;18.690;2024-03-08T08:52:14;32.50;;;16.70;;
71080;SDS011;58740;50.672;18.690;2024-03-08T08:54:45;29.50;;;15.20;;
71080;SDS011;58740;50.672;18.690;2024-03-08T08:57:17;31.80;;;16.20;;
71080;SDS011;58740;50.672;18.690;2024-03-08T08:59:48;34.10;;;17.00;;
71080;SDS011;58740;50.672;18.690;2024-03-08T09:02:17;36.50;;;17.50;;
71080;SDS011;58740;50.672;18.690;2024-03-08T09:04:48;36.90;;;15.30;;
71080;SDS011;58740;50.672;18.690;2024-03-08T09:07:18;35.30;;;17.40;;
71080;SDS011;58740;50.672;18.690;2024-03-08T09:09:47;39.80;;;17.20;;
71080;SDS011;58740;50.672;18.690;2024-03-08T09:12:16;33.80;;;16.90;;
71080;SDS011;58740;50.672;18.690;2024-03-08T09:14:46;34.10;;;15.30;;
71080;SDS011;58740;50.672;18.690;2024-03-08T09:17:15;26.90;;;14.90;;
71080;SDS011;58740;50.672;18.690;2024-03-08T09:19:48;31.70;;;16.50;;
71080;SDS011;58740;50.672;18.690;2024-03-08T09:22:17;33.20;;;16.20;;
71080;SDS011;58740;50.672;18.690;2024-03-08T09:24:46;37.20;;;16.30;;
71080;SDS011;58740;50.672;18.690;2024-03-08T09:27:15;32.50;;;15.30;;
71080;SDS011;58740;50.672;18.690;2024-03-08T09:29:45;31.80;;;16.10;;
71080;SDS011;58740;50.672;18.690;2024-03-08T09:32:15;33.30;;;16.50;;
71080;SDS011;58740;50.672;18.690;2024-03-08T09:34:44;21.40;;;9.30;;
71080;SDS011;58740;50.672;18.690;2024-03-08T09:37:13;26.70;;;13.30;;
71080;SDS011;58740;50.672;18.690;2024-03-08T09:39:42;27.10;;;13.90;;
71080;SDS011;58740;50.672;18.690;2024-03-08T09:42:12;30.40;;;15.60;;
71080;SDS011;58740;50.672;18.690;2024-03-08T09:44:45;35.60;;;15.50;;
71080;SDS011;58740;50.672;18.690;2024-03-08T09:47:15;34.50;;;15.20;;
71080;SDS011;58740;50.672;18.690;2024-03-08T09:49:45;32.50;;;14.70;;
71080;SDS011;58740;50.672;18.690;2024-03-08T09:52:15;30.20;;;16.50;;
71080;SDS011;58740;50.672;18.690;2024-03-08T09:54:46;25.60;;;12.90;;
71080;SDS011;58740;50.672;18.690;2024-03-08T09:57:15;25.80;;;12.50;;
71080;SDS011;58740;50.672;18.690;2024-03-08T09:59:48;34.50;;;14.60;;
71080;SDS011;58740;50.672;18.690;2024-03-08T10:02:18;31.30;;;15.80;;
71080;SDS011;58740;50.672;18.690;2024-03-08T10:04:48;27.70;;;15.10;;
71080;SDS011;58740;50.672;18.690;2024-03-08T10:07:20;28.70;;;14.10;;
71080;SDS011;58740;50.672;18.690;2024-03-08T10:09:53;30.70;;;15.30;;
71080;SDS011;58740;50.672;18.690;2024-03-08T10:12:22;29.30;;;14.90;;
71080;SDS011;58740;50.672;18.690;2024-03-08T10:14:55;34.20;;;15.10;;
71080;SDS011;58740;50.672;18.690;2024-03-08T10:17:26;27.50;;;14.30;;
71080;SDS011;58740;50.672;18.690;2024-03-08T10:20:00;28.40;;;15.10;;
71080;SDS011;58740;50.672;18.690;2024-03-08T10:22:30;33.00;;;15.10;;
71080;SDS011;58740;50.672;18.690;2024-03-08T10:25:01;28.50;;;15.00;;
71080;SDS011;58740;50.672;18.690;2024-03-08T10:27:30;26.70;;;14.40;;
71080;SDS011;58740;50.672;18.690;2024-03-08T10:29:59;29.80;;;14.60;;
71080;SDS011;58740;50.672;18.690;2024-03-08T10:32:31;31.80;;;14.60;;
71080;SDS011;58740;50.672;18.690;2024-03-08T10:35:00;30.30;;;14.20;;
71080;SDS011;58740;50.672;18.690;2024-03-08T10:37:30;29.60;;;14.50;;
71080;SDS011;58740;50.672;18.690;2024-03-08T10:40:04;28.00;;;14.80;;
71080;SDS011;58740;50.672;18.690;2024-03-08T10:42:41;28.20;;;14.50;;
71080;SDS011;58740;50.672;18.690;2024-03-08T10:45:31;23.80;;;12.60;;
71080;SDS011;58740;50.672;18.690;2024-03-08T10:48:29;33.00;;;14.00;;
71080;SDS011;58740;50.672;18.690;2024-03-08T10:51:06;26.70;;;12.80;;
71080;SDS011;58740;50.672;18.690;2024-03-08T10:53:38;26.30;;;13.40;;
71080;SDS011;58740;50.672;18.690;2024-03-08T10:56:09;31.10;;;13.00;;
71080;SDS011;58740;50.672;18.690;2024-03-08T10:58:39;23.50;;;12.30;;
71080;SDS011;58740;50.672;18.690;2024-03-08T11:01:09;26.00;;;12.70;;
71080;SDS011;58740;50.672;18.690;2024-03-08T11:03:46;28.40;;;14.00;;
71080;SDS011;58740;50.672;18.690;2024-03-08T11:06:30;30.30;;;14.50;;
71080;SDS011;58740;50.672;18.690;2024-03-08T11:12:21;16.90;;;7.10;;
71080;SDS011;58740;50.672;18.690;2024-03-08T11:14:53;24.90;;;12.20;;
71080;SDS011;58740;50.672;18.690;2024-03-08T11:17:40;26.10;;;12.60;;
71080;SDS011;58740;50.672;18.690;2024-03-08T11:20:14;25.30;;;12.50;;
71080;SDS011;58740;50.672;18.690;2024-03-08T11:22:48;23.70;;;11.80;;
71080;SDS011;58740;50.672;18.690;2024-03-08T11:25:32;27.50;;;13.20;;
71080;SDS011;58740;50.672;18.690;2024-03-08T11:28:13;25.00;;;12.50;;
71080;SDS011;58740;50.672;18.690;2024-03-08T11:31:23;22.50;;;12.20;;
71080;SDS011;58740;50.672;18.690;2024-03-08T11:33:54;26.60;;;14.00;;
71080;SDS011;58740;50.672;18.690;2024-03-08T11:36:25;30.50;;;16.40;;
71080;SDS011;58740;50.672;18.690;2024-03-08T11:38:58;26.10;;;13.50;;
71080;SDS011;58740;50.672;18.690;2024-03-08T11:41:34;32.60;;;14.60;;
71080;SDS011;58740;50.672;18.690;2024-03-08T11:44:05;26.30;;;13.10;;
71080;SDS011;58740;50.672;18.690;2024-03-08T11:46:35;29.60;;;12.60;;
71080;SDS011;58740;50.672;18.690;2024-03-08T11:49:04;25.20;;;11.50;;
71080;SDS011;58740;50.672;18.690;2024-03-08T11:51:33;23.40;;;12.20;;
71080;SDS011;58740;50.672;18.690;2024-03-08T11:54:03;26.50;;;12.50;;
71080;SDS011;58740;50.672;18.690;2024-03-08T11:56:33;22.90;;;11.20;;
71080;SDS011;58740;50.672;18.690;2024-03-08T11:59:03;25.90;;;13.00;;
71080;SDS011;58740;50.672;18.690;2024-03-08T12:01:32;25.00;;;13.80;;
71080;SDS011;58740;50.672;18.690;2024-03-08T12:04:02;30.40;;;13.20;;
71080;SDS011;58740;50.672;18.690;2024-03-08T12:06:38;25.00;;;13.40;;
71080;SDS011;58740;50.672;18.690;2024-03-08T12:09:12;29.00;;;13.90;;
71080;SDS011;58740;50.672;18.690;2024-03-08T12:11:42;27.20;;;13.40;;
71080;SDS011;58740;50.672;18.690;2024-03-08T12:14:14;23.20;;;12.70;;
71080;SDS011;58740;50.672;18.690;2024-03-08T12:16:44;29.00;;;13.20;;
71080;SDS011;58740;50.672;18.690;2024-03-08T12:19:14;22.30;;;10.20;;
71080;SDS011;58740;50.672;18.690;2024-03-08T12:21:43;22.60;;;11.00;;
71080;SDS011;58740;50.672;18.690;2024-03-08T12:24:16;24.70;;;12.40;;
71080;SDS011;58740;50.672;18.690;2024-03-08T12:26:47;25.80;;;11.80;;
71080;SDS011;58740;50.672;18.690;2024-03-08T12:29:18;26.90;;;12.80;;
71080;SDS011;58740;50.672;18.690;2024-03-08T12:31:52;24.90;;;12.10;;
71080;SDS011;58740;50.672;18.690;2024-03-08T12:34:23;25.80;;;11.80;;
71080;SDS011;58740;50.672;18.690;2024-03-08T12:36:55;23.20;;;11.30;;
71080;SDS011;58740;50.672;18.690;2024-03-08T12:39:25;21.20;;;11.90;;
71080;SDS011;58740;50.672;18.690;2024-03-08T12:41:56;21.70;;;10.40;;
71080;SDS011;58740;50.672;18.690;2024-03-08T12:44:27;26.70;;;13.40;;
71080;SDS011;58740;50.672;18.690;2024-03-08T12:46:56;24.30;;;11.10;;
71080;SDS011;58740;50.672;18.690;2024-03-08T12:49:27;21.20;;;11.40;;
71080;SDS011;58740;50.672;18.690;2024-03-08T12:51:56;26.60;;;12.20;;
71080;SDS011;58740;50.672;18.690;2024-03-08T12:54:25;26.60;;;13.60;;
71080;SDS011;58740;50.672;18.690;2024-03-08T12:56:54;22.60;;;11.40;;
71080;SDS011;58740;50.672;18.690;2024-03-08T12:59:23;22.90;;;11.20;;
71080;SDS011;58740;50.672;18.690;2024-03-08T13:01:52;26.90;;;11.70;;
71080;SDS011;58740;50.672;18.690;2024-03-08T13:04:23;24.50;;;11.40;;
71080;SDS011;58740;50.672;18.690;2024-03-08T13:06:53;23.50;;;11.40;;
71080;SDS011;58740;50.672;18.690;2024-03-08T13:09:23;24.90;;;12.70;;
71080;SDS011;58740;50.672;18.690;2024-03-08T13:11:55;24.70;;;11.70;;
71080;SDS011;58740;50.672;18.690;2024-03-08T13:14:26;20.90;;;9.20;;
71080;SDS011;58740;50.672;18.690;2024-03-08T13:16:59;19.70;;;8.60;;
71080;SDS011;58740;50.672;18.690;2024-03-08T13:19:30;21.90;;;10.60;;
71080;SDS011;58740;50.672;18.690;2024-03-08T13:21:59;22.30;;;11.10;;
71080;SDS011;58740;50.672;18.690;2024-03-08T13:24:32;21.60;;;10.60;;
71080;SDS011;58740;50.672;18.690;2024-03-08T13:27:02;21.50;;;10.20;;
71080;SDS011;58740;50.672;18.690;2024-03-08T13:29:44;18.50;;;9.90;;
71080;SDS011;58740;50.672;18.690;2024-03-08T13:32:15;25.00;;;11.40;;
71080;SDS011;58740;50.672;18.690;2024-03-08T13:34:45;22.20;;;10.70;;
71080;SDS011;58740;50.672;18.690;2024-03-08T13:37:15;21.60;;;10.30;;
71080;SDS011;58740;50.672;18.690;2024-03-08T13:39:45;16.70;;;8.10;;
71080;SDS011;58740;50.672;18.690;2024-03-08T13:42:15;22.10;;;11.40;;
71080;SDS011;58740;50.672;18.690;2024-03-08T13:44:45;22.60;;;11.00;;
71080;SDS011;58740;50.672;18.690;2024-03-08T13:47:14;20.90;;;10.20;;
71080;SDS011;58740;50.672;18.690;2024-03-08T13:49:44;24.20;;;10.10;;
71080;SDS011;58740;50.672;18.690;2024-03-08T13:52:13;21.70;;;10.30;;
71080;SDS011;58740;50.672;18.690;2024-03-08T13:54:44;22.00;;;10.30;;
71080;SDS011;58740;50.672;18.690;2024-03-08T13:57:15;21.80;;;10.00;;
71080;SDS011;58740;50.672;18.690;2024-03-08T13:59:46;18.30;;;9.40;;
71080;SDS011;58740;50.672;18.690;2024-03-08T14:02:15;22.40;;;9.50;;
71080;SDS011;58740;50.672;18.690;2024-03-08T14:04:45;18.60;;;9.40;;
71080;SDS011;58740;50.672;18.690;2024-03-08T14:07:15;17.90;;;9.50;;
71080;SDS011;58740;50.672;18.690;2024-03-08T14:09:45;20.50;;;9.90;;
71080;SDS011;58740;50.672;18.690;2024-03-08T14:12:14;24.80;;;10.40;;
71080;SDS011;58740;50.672;18.690;2024-03-08T14:14:43;22.90;;;10.10;;
71080;SDS011;58740;50.672;18.690;2024-03-08T14:17:12;22.70;;;10.70;;
71080;SDS011;58740;50.672;18.690;2024-03-08T14:19:45;20.10;;;9.30;;
71080;SDS011;58740;50.672;18.690;2024-03-08T14:22:14;19.00;;;8.10;;
71080;SDS011;58740;50.672;18.690;2024-03-08T14:24:43;17.90;;;8.90;;
71080;SDS011;58740;50.672;18.690;2024-03-08T14:27:13;23.10;;;10.30;;
71080;SDS011;58740;50.672;18.690;2024-03-08T14:29:43;26.10;;;10.00;;
71080;SDS011;58740;50.672;18.690;2024-03-08T14:32:16;21.70;;;10.10;;
71080;SDS011;58740;50.672;18.690;2024-03-08T14:34:47;18.80;;;9.30;;
71080;SDS011;58740;50.672;18.690;2024-03-08T14:37:17;24.00;;;9.50;;
71080;SDS011;58740;50.672;18.690;2024-03-08T14:39:51;19.50;;;9.60;;
71080;SDS011;58740;50.672;18.690;2024-03-08T14:42:20;20.50;;;9.50;;
71080;SDS011;58740;50.672;18.690;2024-03-08T14:44:49;20.40;;;9.90;;
71080;SDS011;58740;50.672;18.690;2024-03-08T14:47:20;24.20;;;11.60;;
71080;SDS011;58740;50.672;18.690;2024-03-08T14:49:49;21.00;;;10.30;;
71080;SDS011;58740;50.672;18.690;2024-03-08T14:52:19;18.10;;;9.70;;
71080;SDS011;58740;50.672;18.690;2024-03-08T14:54:58;20.90;;;11.20;;
71080;SDS011;58740;50.672;18.690;2024-03-08T14:57:30;22.00;;;10.70;;
71080;SDS011;58740;50.672;18.690;2024-03-08T15:00:00;21.90;;;11.00;;
71080;SDS011;58740;50.672;18.690;2024-03-08T15:02:35;20.80;;;9.90;;
71080;SDS011;58740;50.672;18.690;2024-03-08T15:05:07;21.30;;;10.50;;
71080;SDS011;58740;50.672;18.690;2024-03-08T15:07:39;20.50;;;11.10;;
71080;SDS011;58740;50.672;18.690;2024-03-08T15:10:10;22.90;;;10.70;;
71080;SDS011;58740;50.672;18.690;2024-03-08T15:12:45;18.90;;;9.20;;
71080;SDS011;58740;50.672;18.690;2024-03-08T15:15:19;20.30;;;10.40;;
71080;SDS011;58740;50.672;18.690;2024-03-08T15:17:48;20.60;;;9.70;;
71080;SDS011;58740;50.672;18.690;2024-03-08T15:20:19;21.60;;;9.90;;
71080;SDS011;58740;50.672;18.690;2024-03-08T15:22:57;23.40;;;10.90;;
71080;SDS011;58740;50.672;18.690;2024-03-08T15:25:27;23.20;;;10.60;;
71080;SDS011;58740;50.672;18.690;2024-03-08T15:27:58;22.60;;;10.10;;
71080;SDS011;58740;50.672;18.690;2024-03-08T15:30:30;20.60;;;10.80;;
71080;SDS011;58740;50.672;18.690;2024-03-08T15:33:01;23.10;;;10.90;;
71080;SDS011;58740;50.672;18.690;2024-03-08T15:35:31;19.90;;;10.30;;
71080;SDS011;58740;50.672;18.690;2024-03-08T15:38:00;21.90;;;10.60;;
71080;SDS011;58740;50.672;18.690;2024-03-08T15:40:30;19.50;;;10.30;;
71080;SDS011;58740;50.672;18.690;2024-03-08T15:42:59;19.10;;;10.40;;
71080;SDS011;58740;50.672;18.690;2024-03-08T15:45:29;24.20;;;12.10;;
71080;SDS011;58740;50.672;18.690;2024-03-08T15:47:58;24.10;;;9.90;;
71080;SDS011;58740;50.672;18.690;2024-03-08T15:50:32;21.80;;;9.90;;
71080;SDS011;58740;50.672;18.690;2024-03-08T15:53:03;22.20;;;10.40;;
71080;SDS011;58740;50.672;18.690;2024-03-08T15:55:32;26.30;;;11.10;;
71080;SDS011;58740;50.672;18.690;2024-03-08T15:58:03;23.70;;;11.50;;
71080;SDS011;58740;50.672;18.690;2024-03-08T16:00:33;35.70;;;15.20;;
71080;SDS011;58740;50.672;18.690;2024-03-08T16:03:05;35.80;;;13.80;;
71080;SDS011;58740;50.672;18.690;2024-03-08T16:05:35;34.70;;;14.00;;
71080;SDS011;58740;50.672;18.690;2024-03-08T16:08:06;30.80;;;12.10;;
71080;SDS011;58740;50.672;18.690;2024-03-08T16:10:37;37.20;;;14.10;;
71080;SDS011;58740;50.672;18.690;2024-03-08T16:13:10;31.80;;;13.10;;
71080;SDS011;58740;50.672;18.690;2024-03-08T16:15:39;34.60;;;12.60;;
71080;SDS011;58740;50.672;18.690;2024-03-08T16:18:08;21.80;;;10.30;;
71080;SDS011;58740;50.672;18.690;2024-03-08T16:20:37;20.90;;;10.20;;
71080;SDS011;58740;50.672;18.690;2024-03-08T16:23:07;22.70;;;10.70;;
71080;SDS011;58740;50.672;18.690;2024-03-08T16:25:38;26.30;;;12.30;;
71080;SDS011;58740;50.672;18.690;2024-03-08T16:28:09;23.30;;;11.20;;
71080;SDS011;58740;50.672;18.690;2024-03-08T16:30:39;29.50;;;12.10;;
71080;SDS011;58740;50.672;18.690;2024-03-08T16:33:10;20.40;;;10.50;;
71080;SDS011;58740;50.672;18.690;2024-03-08T16:35:39;24.20;;;11.30;;
71080;SDS011;58740;50.672;18.690;2024-03-08T16:38:11;23.50;;;11.60;;
71080;SDS011;58740;50.672;18.690;2024-03-08T16:40:42;25.40;;;12.50;;
71080;SDS011;58740;50.672;18.690;2024-03-08T16:43:12;20.20;;;10.80;;
71080;SDS011;58740;50.672;18.690;2024-03-08T16:45:42;20.60;;;10.70;;
71080;SDS011;58740;50.672;18.690;2024-03-08T16:48:11;26.40;;;12.60;;
71080;SDS011;58740;50.672;18.690;2024-03-08T16:50:40;24.90;;;10.60;;
71080;SDS011;58740;50.672;18.690;2024-03-08T16:53:10;24.90;;;12.50;;
71080;SDS011;58740;50.672;18.690;2024-03-08T16:55:39;29.10;;;12.90;;
71080;SDS011;58740;50.672;18.690;2024-03-08T16:58:09;25.00;;;11.30;;
71080;SDS011;58740;50.672;18.690;2024-03-08T17:00:42;21.20;;;10.40;;
71080;SDS011;58740;50.672;18.690;2024-03-08T17:03:11;25.60;;;12.50;;
71080;SDS011;58740;50.672;18.690;2024-03-08T17:05:41;27.00;;;11.10;;
71080;SDS011;58740;50.672;18.690;2024-03-08T17:08:13;27.20;;;12.50;;
71080;SDS011;58740;50.672;18.690;2024-03-08T17:10:44;31.30;;;12.50;;
71080;SDS011;58740;50.672;18.690;2024-03-08T17:13:16;29.90;;;13.30;;
71080;SDS011;58740;50.672;18.690;2024-03-08T17:15:46;28.50;;;13.40;;
71080;SDS011;58740;50.672;18.690;2024-03-08T17:18:16;29.10;;;14.00;;
71080;SDS011;58740;50.672;18.690;2024-03-08T17:20:46;27.50;;;13.60;;
71080;SDS011;58740;50.672;18.690;2024-03-08T17:23:15;28.50;;;13.30;;
71080;SDS011;58740;50.672;18.690;2024-03-08T17:25:45;27.70;;;13.10;;
71080;SDS011;58740;50.672;18.690;2024-03-08T17:28:16;27.80;;;13.70;;
71080;SDS011;58740;50.672;18.690;2024-03-08T17:30:45;26.90;;;13.50;;
71080;SDS011;58740;50.672;18.690;2024-03-08T17:33:14;26.00;;;12.90;;
71080;SDS011;58740;50.672;18.690;2024-03-08T17:35:49;25.40;;;13.40;;
71080;SDS011;58740;50.672;18.690;2024-03-08T17:38:20;30.60;;;13.60;;
71080;SDS011;58740;50.672;18.690;2024-03-08T17:40:52;29.80;;;14.80;;
71080;SDS011;58740;50.672;18.690;2024-03-08T17:43:21;46.00;;;21.00;;
71080;SDS011;58740;50.672;18.690;2024-03-08T17:45:51;36.80;;;16.30;;
71080;SDS011;58740;50.672;18.690;2024-03-08T17:48:20;32.80;;;17.20;;
71080;SDS011;58740;50.672;18.690;2024-03-08T17:50:50;35.20;;;16.10;;
71080;SDS011;58740;50.672;18.690;2024-03-08T17:53:21;34.90;;;17.90;;
71080;SDS011;58740;50.672;18.690;2024-03-08T17:55:50;40.20;;;18.80;;
71080;SDS011;58740;50.672;18.690;2024-03-08T17:58:20;44.50;;;19.50;;
71080;SDS011;58740;50.672;18.690;2024-03-08T18:00:50;41.80;;;19.60;;
71080;SDS011;58740;50.672;18.690;2024-03-08T18:03:21;50.80;;;20.20;;
71080;SDS011;58740;50.672;18.690;2024-03-08T18:05:55;49.50;;;21.80;;
71080;SDS011;58740;50.672;18.690;2024-03-08T18:08:25;47.50;;;21.90;;
71080;SDS011;58740;50.672;18.690;2024-03-08T18:10:54;46.30;;;20.90;;
71080;SDS011;58740;50.672;18.690;2024-03-08T18:13:23;46.40;;;21.40;;
71080;SDS011;58740;50.672;18.690;2024-03-08T18:15:52;50.60;;;21.60;;
71080;SDS011;58740;50.672;18.690;2024-03-08T18:18:23;74.00;;;30.20;;
71080;SDS011;58740;50.672;18.690;2024-03-08T18:20:55;64.40;;;27.20;;
71080;SDS011;58740;50.672;18.690;2024-03-08T18:23:24;248.70;;;95.60;;
71080;SDS011;58740;50.672;18.690;2024-03-08T18:25:54;191.20;;;68.30;;
71080;SDS011;58740;50.672;18.690;2024-03-08T18:28:24;87.40;;;37.70;;
71080;SDS011;58740;50.672;18.690;2024-03-08T18:30:54;54.60;;;24.80;;
71080;SDS011;58740;50.672;18.690;2024-03-08T18:33:23;63.80;;;27.20;;
71080;SDS011;58740;50.672;18.690;2024-03-08T18:35:55;48.70;;;22.50;;
71080;SDS011;58740;50.672;18.690;2024-03-08T18:38:26;62.10;;;26.10;;
71080;SDS011;58740;50.672;18.690;2024-03-08T18:40:56;143.60;;;61.20;;
71080;SDS011;58740;50.672;18.690;2024-03-08T18:43:26;312.80;;;127.90;;
71080;SDS011;58740;50.672;18.690;2024-03-08T18:45:55;301.60;;;126.30;;
71080;SDS011;58740;50.672;18.690;2024-03-08T18:48:26;260.90;;;107.00;;
71080;SDS011;58740;50.672;18.690;2024-03-08T18:50:55;231.90;;;94.70;;
71080;SDS011;58740;50.672;18.690;2024-03-08T18:53:26;279.00;;;111.30;;
71080;SDS011;58740;50.672;18.690;2024-03-08T18:55:56;250.30;;;100.80;;
71080;SDS011;58740;50.672;18.690;2024-03-08T18:58:25;262.60;;;102.70;;